sensor_id;sensor_type;location;lat;lon;timestamp;P1;durP1;ratioP1;P2;durP2;ratioP2
6101;SDS011;3081;50.584;7.032;2023-02-05T00:00:53;14.97;;;5.07;;
6101;SDS011;3081;50.584;7.032;2023-02-05T00:03:20;17.27;;;5.83;;
6101;SDS011;3081;50.584;7.032;2023-02-05T00:05:47;20.53;;;5.33;;
6101;SDS011;3081;50.584;7.032;2023-02-05T00:08:14;9.47;;;4.33;;
6101;SDS011;3081;50.584;7.032;2023-02-05T00:10:41;13.70;;;5.20;;
6101;SDS011;3081;50.584;7.032;2023-02-05T00:13:07;14.57;;;5.40;;
6101;SDS011;3081;50.584;7.032;2023-02-05T00:15:34;18.93;;;5.67;;
6101;SDS011;3081;50.584;7.032;2023-02-05T00:18:06;23.30;;;6.97;;
6101;SDS011;3081;50.584;7.032;2023-02-05T00:20:33;18.30;;;6.07;;
6101;SDS011;3081;50.584;7.032;2023-02-05T00:23:01;16.73;;;5.73;;
6101;SDS011;3081;50.584;7.032;2023-02-05T00:25:28;16.03;;;5.33;;
6101;SDS011;3081;50.584;7.032;2023-02-05T00:27:55;17.50;;;6.90;;
6101;SDS011;3081;50.584;7.032;2023-02-05T00:30:22;25.50;;;5.87;;
6101;SDS011;3081;50.584;7.032;2023-02-05T00:32:49;16.70;;;5.53;;
6101;SDS011;3081;50.584;7.032;2023-02-05T00:35:17;13.63;;;6.07;;
6101;SDS011;3081;50.584;7.032;2023-02-05T00:37:44;18.07;;;6.40;;
6101;SDS011;3081;50.584;7.032;2023-02-05T00:40:11;14.30;;;5.60;;
6101;SDS011;3081;50.584;7.032;2023-02-05T00:42:38;65.03;;;24.87;;
6101;SDS011;3081;50.584;7.032;2023-02-05T00:45:05;62.00;;;21.10;;
6101;SDS011;3081;50.584;7.032;2023-02-05T00:47:33;62.30;;;24.03;;
6101;SDS011;3081;50.584;7.032;2023-02-05T00:50:00;47.63;;;15.90;;
6101;SDS011;3081;50.584;7.032;2023-02-05T00:52:28;18.83;;;9.00;;
6101;SDS011;3081;50.584;7.032;2023-02-05T00:54:55;13.37;;;5.40;;
6101;SDS011;3081;50.584;7.032;2023-02-05T00:57:22;13.43;;;5.90;;
6101;SDS011;3081;50.584;7.032;2023-02-05T00:59:49;16.17;;;6.33;;
6101;SDS011;3081;50.584;7.032;2023-02-05T01:02:17;15.57;;;6.40;;
6101;SDS011;3081;50.584;7.032;2023-02-05T01:04:47;15.93;;;5.63;;
6101;SDS011;3081;50.584;7.032;2023-02-05T01:07:14;15.83;;;5.57;;
6101;SDS011;3081;50.584;7.032;2023-02-05T01:09:43;15.20;;;6.17;;
6101;SDS011;3081;50.584;7.032;2023-02-05T01:12:10;15.53;;;6.00;;
6101;SDS011;3081;50.584;7.032;2023-02-05T01:14:38;15.73;;;6.07;;
6101;SDS011;3081;50.584;7.032;2023-02-05T01:17:05;16.40;;;6.50;;
6101;SDS011;3081;50.584;7.032;2023-02-05T01:19:32;17.53;;;6.80;;
6101;SDS011;3081;50.584;7.032;2023-02-05T01:21:59;19.13;;;8.70;;
6101;SDS011;3081;50.584;7.032;2023-02-05T01:24:26;17.87;;;6.57;;
6101;SDS011;3081;50.584;7.032;2023-02-05T01:26:54;16.37;;;6.53;;
6101;SDS011;3081;50.584;7.032;2023-02-05T01:29:22;14.87;;;6.13;;
6101;SDS011;3081;50.584;7.032;2023-02-05T01:31:49;24.77;;;7.07;;
6101;SDS011;3081;50.584;7.032;2023-02-05T01:34:17;15.60;;;6.30;;
6101;SDS011;3081;50.584;7.032;2023-02-05T01:36:44;17.07;;;6.30;;
6101;SDS011;3081;50.584;7.032;2023-02-05T01:39:11;19.63;;;6.30;;
6101;SDS011;3081;50.584;7.032;2023-02-05T01:41:38;16.50;;;6.00;;
6101;SDS011;3081;50.584;7.032;2023-02-05T01:44:09;20.73;;;6.73;;
6101;SDS011;3081;50.584;7.032;2023-02-05T01:46:37;14.47;;;5.90;;
6101;SDS011;3081;50.584;7.032;2023-02-05T01:49:06;11.40;;;6.17;;
6101;SDS011;3081;50.584;7.032;2023-02-05T01:51:37;15.00;;;7.47;;
6101;SDS011;3081;50.584;7.032;2023-02-05T01:54:04;18.80;;;6.80;;
6101;SDS011;3081;50.584;7.032;2023-02-05T01:56:33;14.63;;;6.60;;
6101;SDS011;3081;50.584;7.032;2023-02-05T01:59:03;28.67;;;7.60;;
6101;SDS011;3081;50.584;7.032;2023-02-05T02:01:35;23.30;;;7.40;;
6101;SDS011;3081;50.584;7.032;2023-02-05T02:04:05;14.20;;;7.33;;
6101;SDS011;3081;50.584;7.032;2023-02-05T02:06:32;16.10;;;7.53;;
6101;SDS011;3081;50.584;7.032;2023-02-05T02:09:01;14.83;;;7.20;;
6101;SDS011;3081;50.584;7.032;2023-02-05T02:11:29;16.90;;;7.00;;
6101;SDS011;3081;50.584;7.032;2023-02-05T02:13:59;17.60;;;6.77;;
6101;SDS011;3081;50.584;7.032;2023-02-05T02:16:30;16.73;;;7.10;;
6101;SDS011;3081;50.584;7.032;2023-02-05T02:18:59;22.60;;;9.30;;
6101;SDS011;3081;50.584;7.032;2023-02-05T02:27:48;28.13;;;10.90;;
6101;SDS011;3081;50.584;7.032;2023-02-05T02:30:20;27.90;;;10.33;;
6101;SDS011;3081;50.584;7.032;2023-02-05T02:32:53;16.80;;;6.63;;
6101;SDS011;3081;50.584;7.032;2023-02-05T02:35:27;23.57;;;11.40;;
6101;SDS011;3081;50.584;7.032;2023-02-05T02:38:02;24.57;;;9.50;;
6101;SDS011;3081;50.584;7.032;2023-02-05T02:40:34;15.87;;;8.77;;
6101;SDS011;3081;50.584;7.032;2023-02-05T02:43:08;18.43;;;7.57;;
6101;SDS011;3081;50.584;7.032;2023-02-05T02:45:40;20.17;;;8.03;;
6101;SDS011;3081;50.584;7.032;2023-02-05T02:48:11;20.93;;;7.10;;
6101;SDS011;3081;50.584;7.032;2023-02-05T02:50:41;24.50;;;8.13;;
6101;SDS011;3081;50.584;7.032;2023-02-05T02:53:13;23.47;;;9.00;;
6101;SDS011;3081;50.584;7.032;2023-02-05T02:55:42;17.60;;;7.43;;
6101;SDS011;3081;50.584;7.032;2023-02-05T02:58:14;21.40;;;8.13;;
6101;SDS011;3081;50.584;7.032;2023-02-05T03:00:45;20.03;;;8.23;;
6101;SDS011;3081;50.584;7.032;2023-02-05T03:03:14;23.27;;;8.97;;
6101;SDS011;3081;50.584;7.032;2023-02-05T03:05:44;18.67;;;8.40;;
6101;SDS011;3081;50.584;7.032;2023-02-05T03:08:14;15.83;;;6.47;;
6101;SDS011;3081;50.584;7.032;2023-02-05T03:10:45;21.23;;;8.50;;
6101;SDS011;3081;50.584;7.032;2023-02-05T03:13:17;16.27;;;6.80;;
6101;SDS011;3081;50.584;7.032;2023-02-05T03:15:44;19.43;;;7.83;;
6101;SDS011;3081;50.584;7.032;2023-02-05T03:18:12;14.33;;;6.20;;
6101;SDS011;3081;50.584;7.032;2023-02-05T03:20:41;23.07;;;7.47;;
6101;SDS011;3081;50.584;7.032;2023-02-05T03:23:10;13.63;;;7.30;;
6101;SDS011;3081;50.584;7.032;2023-02-05T03:25:37;15.03;;;6.93;;
6101;SDS011;3081;50.584;7.032;2023-02-05T03:28:04;22.43;;;8.23;;
6101;SDS011;3081;50.584;7.032;2023-02-05T03:30:35;13.00;;;6.50;;
6101;SDS011;3081;50.584;7.032;2023-02-05T03:33:15;14.93;;;7.63;;
6101;SDS011;3081;50.584;7.032;2023-02-05T03:35:52;18.73;;;7.90;;
6101;SDS011;3081;50.584;7.032;2023-02-05T03:38:32;18.40;;;8.00;;
6101;SDS011;3081;50.584;7.032;2023-02-05T03:41:14;25.03;;;8.40;;
6101;SDS011;3081;50.584;7.032;2023-02-05T03:44:15;23.37;;;9.83;;
6101;SDS011;3081;50.584;7.032;2023-02-05T03:46:54;27.67;;;9.00;;
6101;SDS011;3081;50.584;7.032;2023-02-05T03:49:28;27.47;;;9.87;;
6101;SDS011;3081;50.584;7.032;2023-02-05T03:52:07;36.00;;;12.07;;
6101;SDS011;3081;50.584;7.032;2023-02-05T03:54:39;30.33;;;10.00;;
6101;SDS011;3081;50.584;7.032;2023-02-05T03:57:14;25.83;;;9.60;;
6101;SDS011;3081;50.584;7.032;2023-02-05T03:59:44;26.73;;;11.30;;
6101;SDS011;3081;50.584;7.032;2023-02-05T04:02:13;33.37;;;9.87;;
6101;SDS011;3081;50.584;7.032;2023-02-05T04:04:40;32.80;;;10.40;;
6101;SDS011;3081;50.584;7.032;2023-02-05T04:07:07;22.60;;;9.90;;
6101;SDS011;3081;50.584;7.032;2023-02-05T04:09:34;31.17;;;11.20;;
6101;SDS011;3081;50.584;7.032;2023-02-05T04:12:01;26.53;;;10.77;;
6101;SDS011;3081;50.584;7.032;2023-02-05T04:14:28;22.73;;;9.97;;
6101;SDS011;3081;50.584;7.032;2023-02-05T04:16:55;23.80;;;10.00;;
6101;SDS011;3081;50.584;7.032;2023-02-05T04:19:24;22.03;;;10.10;;
6101;SDS011;3081;50.584;7.032;2023-02-05T04:21:50;26.90;;;10.07;;
6101;SDS011;3081;50.584;7.032;2023-02-05T04:24:17;27.20;;;9.23;;
6101;SDS011;3081;50.584;7.032;2023-02-05T04:26:44;22.60;;;10.00;;
6101;SDS011;3081;50.584;7.032;2023-02-05T04:29:11;23.90;;;8.40;;
6101;SDS011;3081;50.584;7.032;2023-02-05T04:31:38;21.10;;;9.30;;
6101;SDS011;3081;50.584;7.032;2023-02-05T04:34:05;18.77;;;9.50;;
6101;SDS011;3081;50.584;7.032;2023-02-05T04:36:33;21.17;;;8.53;;
6101;SDS011;3081;50.584;7.032;2023-02-05T04:39:00;28.63;;;9.53;;
6101;SDS011;3081;50.584;7.032;2023-02-05T04:41:27;24.23;;;9.97;;
6101;SDS011;3081;50.584;7.032;2023-02-05T04:43:54;22.03;;;8.60;;
6101;SDS011;3081;50.584;7.032;2023-02-05T04:46:21;23.60;;;9.50;;
6101;SDS011;3081;50.584;7.032;2023-02-05T04:48:48;21.57;;;8.83;;
6101;SDS011;3081;50.584;7.032;2023-02-05T04:51:14;25.50;;;9.93;;
6101;SDS011;3081;50.584;7.032;2023-02-05T04:53:43;20.60;;;8.27;;
6101;SDS011;3081;50.584;7.032;2023-02-05T04:56:10;32.37;;;10.67;;
6101;SDS011;3081;50.584;7.032;2023-02-05T04:58:39;20.57;;;9.90;;
6101;SDS011;3081;50.584;7.032;2023-02-05T05:01:09;33.27;;;10.33;;
6101;SDS011;3081;50.584;7.032;2023-02-05T05:03:38;23.60;;;9.93;;
6101;SDS011;3081;50.584;7.032;2023-02-05T05:06:05;27.70;;;11.10;;
6101;SDS011;3081;50.584;7.032;2023-02-05T05:08:33;28.60;;;10.27;;
6101;SDS011;3081;50.584;7.032;2023-02-05T05:11:05;42.23;;;13.60;;
6101;SDS011;3081;50.584;7.032;2023-02-05T05:13:34;24.33;;;10.70;;
6101;SDS011;3081;50.584;7.032;2023-02-05T05:16:02;30.53;;;10.27;;
6101;SDS011;3081;50.584;7.032;2023-02-05T05:18:30;25.43;;;10.13;;
6101;SDS011;3081;50.584;7.032;2023-02-05T05:20:57;27.17;;;10.43;;
6101;SDS011;3081;50.584;7.032;2023-02-05T05:23:24;30.33;;;11.00;;
6101;SDS011;3081;50.584;7.032;2023-02-05T05:25:51;20.40;;;8.93;;
6101;SDS011;3081;50.584;7.032;2023-02-05T05:28:19;24.23;;;8.97;;
6101;SDS011;3081;50.584;7.032;2023-02-05T05:30:46;22.13;;;9.33;;
6101;SDS011;3081;50.584;7.032;2023-02-05T05:33:13;15.67;;;6.73;;
6101;SDS011;3081;50.584;7.032;2023-02-05T05:35:40;21.33;;;6.17;;
6101;SDS011;3081;50.584;7.032;2023-02-05T05:38:07;13.33;;;6.00;;
6101;SDS011;3081;50.584;7.032;2023-02-05T05:40:34;18.20;;;8.37;;
6101;SDS011;3081;50.584;7.032;2023-02-05T05:43:22;13.63;;;5.33;;
6101;SDS011;3081;50.584;7.032;2023-02-05T05:46:06;10.80;;;5.80;;
6101;SDS011;3081;50.584;7.032;2023-02-05T05:48:33;9.20;;;4.20;;
6101;SDS011;3081;50.584;7.032;2023-02-05T05:51:00;7.97;;;3.83;;
6101;SDS011;3081;50.584;7.032;2023-02-05T05:53:27;14.03;;;6.13;;
6101;SDS011;3081;50.584;7.032;2023-02-05T05:55:54;15.17;;;6.57;;
6101;SDS011;3081;50.584;7.032;2023-02-05T05:58:23;16.53;;;5.30;;
6101;SDS011;3081;50.584;7.032;2023-02-05T06:00:50;18.57;;;7.80;;
6101;SDS011;3081;50.584;7.032;2023-02-05T06:03:17;9.80;;;4.63;;
6101;SDS011;3081;50.584;7.032;2023-02-05T06:05:46;17.67;;;6.50;;
6101;SDS011;3081;50.584;7.032;2023-02-05T06:08:13;12.63;;;5.83;;
6101;SDS011;3081;50.584;7.032;2023-02-05T06:10:40;10.83;;;5.50;;
6101;SDS011;3081;50.584;7.032;2023-02-05T06:13:07;23.97;;;9.10;;
6101;SDS011;3081;50.584;7.032;2023-02-05T06:15:35;14.23;;;4.70;;
6101;SDS011;3081;50.584;7.032;2023-02-05T06:18:02;10.97;;;5.00;;
6101;SDS011;3081;50.584;7.032;2023-02-05T06:20:29;20.93;;;8.90;;
6101;SDS011;3081;50.584;7.032;2023-02-05T06:22:56;11.63;;;5.70;;
6101;SDS011;3081;50.584;7.032;2023-02-05T06:25:23;15.73;;;6.80;;
6101;SDS011;3081;50.584;7.032;2023-02-05T06:27:50;13.60;;;6.33;;
6101;SDS011;3081;50.584;7.032;2023-02-05T06:30:17;13.10;;;6.70;;
6101;SDS011;3081;50.584;7.032;2023-02-05T06:32:45;13.60;;;5.93;;
6101;SDS011;3081;50.584;7.032;2023-02-05T06:35:12;17.73;;;7.70;;
6101;SDS011;3081;50.584;7.032;2023-02-05T06:37:39;7.53;;;3.53;;
6101;SDS011;3081;50.584;7.032;2023-02-05T06:40:07;11.83;;;6.00;;
6101;SDS011;3081;50.584;7.032;2023-02-05T06:42:35;15.00;;;6.03;;
6101;SDS011;3081;50.584;7.032;2023-02-05T06:45:02;12.87;;;5.17;;
6101;SDS011;3081;50.584;7.032;2023-02-05T06:47:29;17.20;;;7.50;;
6101;SDS011;3081;50.584;7.032;2023-02-05T06:49:58;18.43;;;8.00;;
6101;SDS011;3081;50.584;7.032;2023-02-05T06:52:25;19.63;;;6.43;;
6101;SDS011;3081;50.584;7.032;2023-02-05T06:54:51;26.13;;;9.70;;
6101;SDS011;3081;50.584;7.032;2023-02-05T06:57:18;22.80;;;10.87;;
6101;SDS011;3081;50.584;7.032;2023-02-05T06:59:45;24.07;;;10.43;;
6101;SDS011;3081;50.584;7.032;2023-02-05T07:02:12;28.05;;;10.48;;
6101;SDS011;3081;50.584;7.032;2023-02-05T07:04:39;25.10;;;12.03;;
6101;SDS011;3081;50.584;7.032;2023-02-05T07:07:08;29.77;;;12.17;;
6101;SDS011;3081;50.584;7.032;2023-02-05T07:09:34;29.33;;;11.20;;
6101;SDS011;3081;50.584;7.032;2023-02-05T07:12:01;27.90;;;11.20;;
6101;SDS011;3081;50.584;7.032;2023-02-05T07:14:28;33.80;;;10.53;;
6101;SDS011;3081;50.584;7.032;2023-02-05T07:16:56;35.90;;;13.37;;
6101;SDS011;3081;50.584;7.032;2023-02-05T07:19:23;38.60;;;13.60;;
6101;SDS011;3081;50.584;7.032;2023-02-05T07:21:50;36.53;;;12.83;;
6101;SDS011;3081;50.584;7.032;2023-02-05T07:24:18;35.63;;;13.73;;
6101;SDS011;3081;50.584;7.032;2023-02-05T07:26:45;26.53;;;11.03;;
6101;SDS011;3081;50.584;7.032;2023-02-05T07:29:12;30.10;;;12.77;;
6101;SDS011;3081;50.584;7.032;2023-02-05T07:31:39;38.90;;;14.90;;
6101;SDS011;3081;50.584;7.032;2023-02-05T07:34:06;35.77;;;12.40;;
6101;SDS011;3081;50.584;7.032;2023-02-05T07:36:33;33.90;;;13.50;;
6101;SDS011;3081;50.584;7.032;2023-02-05T07:39:00;42.03;;;15.63;;
6101;SDS011;3081;50.584;7.032;2023-02-05T07:41:28;38.43;;;14.90;;
6101;SDS011;3081;50.584;7.032;2023-02-05T07:43:55;45.33;;;14.63;;
6101;SDS011;3081;50.584;7.032;2023-02-05T07:46:22;37.53;;;15.70;;
6101;SDS011;3081;50.584;7.032;2023-02-05T07:48:49;36.63;;;15.27;;
6101;SDS011;3081;50.584;7.032;2023-02-05T07:51:18;43.47;;;15.20;;
6101;SDS011;3081;50.584;7.032;2023-02-05T07:53:46;36.43;;;15.10;;
6101;SDS011;3081;50.584;7.032;2023-02-05T07:56:14;19.40;;;9.70;;
6101;SDS011;3081;50.584;7.032;2023-02-05T07:58:43;31.37;;;13.20;;
6101;SDS011;3081;50.584;7.032;2023-02-05T08:01:10;29.47;;;13.30;;
6101;SDS011;3081;50.584;7.032;2023-02-05T08:03:37;27.13;;;12.37;;
6101;SDS011;3081;50.584;7.032;2023-02-05T08:06:04;31.43;;;13.60;;
6101;SDS011;3081;50.584;7.032;2023-02-05T08:08:31;33.20;;;15.10;;
6101;SDS011;3081;50.584;7.032;2023-02-05T08:10:59;33.73;;;13.77;;
6101;SDS011;3081;50.584;7.032;2023-02-05T08:13:27;33.87;;;13.60;;
6101;SDS011;3081;50.584;7.032;2023-02-05T08:15:56;31.80;;;13.10;;
6101;SDS011;3081;50.584;7.032;2023-02-05T08:18:23;29.87;;;14.80;;
6101;SDS011;3081;50.584;7.032;2023-02-05T08:20:50;27.83;;;12.90;;
6101;SDS011;3081;50.584;7.032;2023-02-05T08:23:18;29.70;;;13.40;;
6101;SDS011;3081;50.584;7.032;2023-02-05T08:25:45;40.13;;;16.70;;
6101;SDS011;3081;50.584;7.032;2023-02-05T08:28:12;35.80;;;14.60;;
6101;SDS011;3081;50.584;7.032;2023-02-05T08:30:39;31.50;;;14.43;;
6101;SDS011;3081;50.584;7.032;2023-02-05T08:33:08;32.37;;;15.13;;
6101;SDS011;3081;50.584;7.032;2023-02-05T08:35:35;39.13;;;16.67;;
6101;SDS011;3081;50.584;7.032;2023-02-05T08:38:02;28.13;;;12.37;;
6101;SDS011;3081;50.584;7.032;2023-02-05T08:40:29;29.20;;;13.20;;
6101;SDS011;3081;50.584;7.032;2023-02-05T08:42:56;34.90;;;15.20;;
6101;SDS011;3081;50.584;7.032;2023-02-05T08:45:24;29.87;;;12.70;;
6101;SDS011;3081;50.584;7.032;2023-02-05T08:47:51;26.50;;;13.13;;
6101;SDS011;3081;50.584;7.032;2023-02-05T08:50:20;32.90;;;13.90;;
6101;SDS011;3081;50.584;7.032;2023-02-05T08:52:48;30.43;;;13.67;;
6101;SDS011;3081;50.584;7.032;2023-02-05T08:55:15;20.17;;;10.03;;
6101;SDS011;3081;50.584;7.032;2023-02-05T08:57:43;22.97;;;13.17;;
6101;SDS011;3081;50.584;7.032;2023-02-05T09:00:11;15.90;;;8.80;;
6101;SDS011;3081;50.584;7.032;2023-02-05T09:02:39;23.53;;;10.50;;
6101;SDS011;3081;50.584;7.032;2023-02-05T09:05:06;12.60;;;6.47;;
6101;SDS011;3081;50.584;7.032;2023-02-05T09:07:35;16.80;;;10.30;;
6101;SDS011;3081;50.584;7.032;2023-02-05T09:10:02;21.37;;;11.30;;
6101;SDS011;3081;50.584;7.032;2023-02-05T09:12:29;14.80;;;8.10;;
6101;SDS011;3081;50.584;7.032;2023-02-05T09:14:56;12.07;;;7.73;;
6101;SDS011;3081;50.584;7.032;2023-02-05T09:17:23;11.90;;;6.73;;
6101;SDS011;3081;50.584;7.032;2023-02-05T09:19:50;19.50;;;8.77;;
6101;SDS011;3081;50.584;7.032;2023-02-05T09:22:17;11.33;;;5.67;;
6101;SDS011;3081;50.584;7.032;2023-02-05T09:24:46;12.67;;;8.30;;
6101;SDS011;3081;50.584;7.032;2023-02-05T09:27:13;8.73;;;5.53;;
6101;SDS011;3081;50.584;7.032;2023-02-05T09:29:40;8.70;;;5.70;;
6101;SDS011;3081;50.584;7.032;2023-02-05T09:32:07;9.43;;;6.63;;
6101;SDS011;3081;50.584;7.032;2023-02-05T09:34:34;11.97;;;7.40;;
6101;SDS011;3081;50.584;7.032;2023-02-05T09:37:00;11.77;;;7.83;;
6101;SDS011;3081;50.584;7.032;2023-02-05T09:39:28;10.33;;;5.77;;
6101;SDS011;3081;50.584;7.032;2023-02-05T09:41:58;8.57;;;5.10;;
6101;SDS011;3081;50.584;7.032;2023-02-05T09:44:36;11.20;;;4.07;;
6101;SDS011;3081;50.584;7.032;2023-02-05T09:47:15;5.33;;;3.67;;
6101;SDS011;3081;50.584;7.032;2023-02-05T09:49:47;7.67;;;3.87;;
6101;SDS011;3081;50.584;7.032;2023-02-05T09:52:21;3.83;;;2.83;;
6101;SDS011;3081;50.584;7.032;2023-02-05T09:54:53;2.70;;;1.80;;
6101;SDS011;3081;50.584;7.032;2023-02-05T09:57:30;3.20;;;2.30;;
6101;SDS011;3081;50.584;7.032;2023-02-05T09:59:59;4.97;;;1.70;;
6101;SDS011;3081;50.584;7.032;2023-02-05T10:02:27;2.90;;;1.43;;
6101;SDS011;3081;50.584;7.032;2023-02-05T10:05:00;2.57;;;1.90;;
6101;SDS011;3081;50.584;7.032;2023-02-05T10:07:30;4.30;;;2.13;;
6101;SDS011;3081;50.584;7.032;2023-02-05T10:10:10;3.07;;;1.20;;
6101;SDS011;3081;50.584;7.032;2023-02-05T10:15:46;1.93;;;1.00;;
6101;SDS011;3081;50.584;7.032;2023-02-05T10:18:20;1.80;;;1.30;;
6101;SDS011;3081;50.584;7.032;2023-02-05T10:20:55;2.87;;;1.50;;
6101;SDS011;3081;50.584;7.032;2023-02-05T10:26:24;2.60;;;1.87;;
6101;SDS011;3081;50.584;7.032;2023-02-05T10:29:07;2.63;;;1.70;;
6101;SDS011;3081;50.584;7.032;2023-02-05T10:31:47;5.00;;;1.70;;
6101;SDS011;3081;50.584;7.032;2023-02-05T10:34:27;3.33;;;1.70;;
6101;SDS011;3081;50.584;7.032;2023-02-05T10:37:04;3.40;;;1.70;;
6101;SDS011;3081;50.584;7.032;2023-02-05T10:39:37;4.63;;;1.53;;
6101;SDS011;3081;50.584;7.032;2023-02-05T10:42:05;3.33;;;1.60;;
6101;SDS011;3081;50.584;7.032;2023-02-05T10:44:43;2.40;;;1.30;;
6101;SDS011;3081;50.584;7.032;2023-02-05T10:47:14;2.60;;;1.83;;
6101;SDS011;3081;50.584;7.032;2023-02-05T10:49:46;7.00;;;1.73;;
6101;SDS011;3081;50.584;7.032;2023-02-05T10:52:17;7.13;;;2.20;;
6101;SDS011;3081;50.584;7.032;2023-02-05T10:54:44;4.80;;;1.57;;
6101;SDS011;3081;50.584;7.032;2023-02-05T10:57:12;2.40;;;1.50;;
6101;SDS011;3081;50.584;7.032;2023-02-05T10:59:46;3.60;;;1.80;;
6101;SDS011;3081;50.584;7.032;2023-02-05T11:02:16;6.10;;;2.10;;
6101;SDS011;3081;50.584;7.032;2023-02-05T11:04:45;5.33;;;4.47;;
6101;SDS011;3081;50.584;7.032;2023-02-05T11:07:18;5.07;;;1.80;;
6101;SDS011;3081;50.584;7.032;2023-02-05T11:09:49;6.43;;;3.37;;
6101;SDS011;3081;50.584;7.032;2023-02-05T11:12:16;5.60;;;2.93;;
6101;SDS011;3081;50.584;7.032;2023-02-05T11:14:55;6.53;;;2.60;;
6101;SDS011;3081;50.584;7.032;2023-02-05T11:17:25;10.63;;;1.50;;
6101;SDS011;3081;50.584;7.032;2023-02-05T11:19:58;4.30;;;1.87;;
6101;SDS011;3081;50.584;7.032;2023-02-05T11:22:27;2.50;;;1.20;;
6101;SDS011;3081;50.584;7.032;2023-02-05T11:25:03;3.47;;;1.67;;
6101;SDS011;3081;50.584;7.032;2023-02-05T11:27:32;3.33;;;1.50;;
6101;SDS011;3081;50.584;7.032;2023-02-05T11:32:53;4.40;;;1.80;;
6101;SDS011;3081;50.584;7.032;2023-02-05T11:35:21;4.60;;;1.70;;
6101;SDS011;3081;50.584;7.032;2023-02-05T11:37:54;4.43;;;1.40;;
6101;SDS011;3081;50.584;7.032;2023-02-05T11:40:25;8.60;;;2.30;;
6101;SDS011;3081;50.584;7.032;2023-02-05T11:42:59;7.90;;;1.83;;
6101;SDS011;3081;50.584;7.032;2023-02-05T11:45:29;3.53;;;1.70;;
6101;SDS011;3081;50.584;7.032;2023-02-05T11:48:01;1.77;;;1.10;;
6101;SDS011;3081;50.584;7.032;2023-02-05T11:50:30;4.83;;;2.17;;
6101;SDS011;3081;50.584;7.032;2023-02-05T11:53:05;2.20;;;1.33;;
6101;SDS011;3081;50.584;7.032;2023-02-05T11:55:36;6.80;;;1.60;;
6101;SDS011;3081;50.584;7.032;2023-02-05T11:58:04;5.10;;;1.20;;
6101;SDS011;3081;50.584;7.032;2023-02-05T12:00:33;7.37;;;2.00;;
6101;SDS011;3081;50.584;7.032;2023-02-05T12:03:05;3.87;;;1.00;;
6101;SDS011;3081;50.584;7.032;2023-02-05T12:05:42;2.63;;;1.47;;
6101;SDS011;3081;50.584;7.032;2023-02-05T12:08:21;2.77;;;1.30;;
6101;SDS011;3081;50.584;7.032;2023-02-05T12:10:56;4.97;;;1.87;;
6101;SDS011;3081;50.584;7.032;2023-02-05T12:13:40;6.87;;;1.87;;
6101;SDS011;3081;50.584;7.032;2023-02-05T12:16:16;3.40;;;1.50;;
6101;SDS011;3081;50.584;7.032;2023-02-05T12:18:53;12.63;;;2.70;;
6101;SDS011;3081;50.584;7.032;2023-02-05T12:21:30;6.10;;;2.30;;
6101;SDS011;3081;50.584;7.032;2023-02-05T12:24:07;7.47;;;2.50;;
6101;SDS011;3081;50.584;7.032;2023-02-05T12:27:07;9.77;;;2.77;;
6101;SDS011;3081;50.584;7.032;2023-02-05T12:29:52;3.13;;;1.57;;
6101;SDS011;3081;50.584;7.032;2023-02-05T12:32:42;7.87;;;2.60;;
6101;SDS011;3081;50.584;7.032;2023-02-05T12:35:29;7.00;;;1.43;;
6101;SDS011;3081;50.584;7.032;2023-02-05T12:38:07;13.97;;;5.73;;
6101;SDS011;3081;50.584;7.032;2023-02-05T12:40:48;8.00;;;2.27;;
6101;SDS011;3081;50.584;7.032;2023-02-05T12:43:30;8.70;;;2.37;;
6101;SDS011;3081;50.584;7.032;2023-02-05T12:46:04;9.73;;;1.67;;
6101;SDS011;3081;50.584;7.032;2023-02-05T12:48:50;2.60;;;1.30;;
6101;SDS011;3081;50.584;7.032;2023-02-05T12:51:39;4.47;;;1.50;;
6101;SDS011;3081;50.584;7.032;2023-02-05T12:54:23;5.10;;;1.60;;
6101;SDS011;3081;50.584;7.032;2023-02-05T12:57:07;6.30;;;2.30;;
6101;SDS011;3081;50.584;7.032;2023-02-05T12:59:37;11.30;;;2.40;;
6101;SDS011;3081;50.584;7.032;2023-02-05T13:02:14;4.90;;;1.47;;
6101;SDS011;3081;50.584;7.032;2023-02-05T13:04:48;4.50;;;1.80;;
6101;SDS011;3081;50.584;7.032;2023-02-05T13:07:26;8.93;;;2.07;;
6101;SDS011;3081;50.584;7.032;2023-02-05T13:09:59;8.77;;;2.23;;
6101;SDS011;3081;50.584;7.032;2023-02-05T13:12:30;4.60;;;2.27;;
6101;SDS011;3081;50.584;7.032;2023-02-05T13:15:03;12.27;;;3.67;;
6101;SDS011;3081;50.584;7.032;2023-02-05T13:17:40;7.57;;;2.53;;
6101;SDS011;3081;50.584;7.032;2023-02-05T13:20:16;13.90;;;4.83;;
6101;SDS011;3081;50.584;7.032;2023-02-05T13:23:10;10.23;;;2.97;;
6101;SDS011;3081;50.584;7.032;2023-02-05T13:25:57;7.83;;;2.60;;
6101;SDS011;3081;50.584;7.032;2023-02-05T13:28:59;3.50;;;2.00;;
6101;SDS011;3081;50.584;7.032;2023-02-05T13:31:31;7.83;;;3.60;;
6101;SDS011;3081;50.584;7.032;2023-02-05T13:34:03;11.10;;;4.70;;
6101;SDS011;3081;50.584;7.032;2023-02-05T13:42:46;9.40;;;4.90;;
6101;SDS011;3081;50.584;7.032;2023-02-05T13:45:41;14.87;;;5.40;;
6101;SDS011;3081;50.584;7.032;2023-02-05T13:48:32;13.20;;;5.10;;
6101;SDS011;3081;50.584;7.032;2023-02-05T13:51:20;8.93;;;3.43;;
6101;SDS011;3081;50.584;7.032;2023-02-05T13:57:37;13.40;;;4.80;;
6101;SDS011;3081;50.584;7.032;2023-02-05T14:00:35;9.00;;;5.27;;
6101;SDS011;3081;50.584;7.032;2023-02-05T14:03:05;10.63;;;5.40;;
6101;SDS011;3081;50.584;7.032;2023-02-05T14:05:34;17.97;;;5.47;;
6101;SDS011;3081;50.584;7.032;2023-02-05T14:08:04;9.20;;;3.73;;
6101;SDS011;3081;50.584;7.032;2023-02-05T14:10:33;10.27;;;4.40;;
6101;SDS011;3081;50.584;7.032;2023-02-05T14:13:10;6.87;;;4.10;;
6101;SDS011;3081;50.584;7.032;2023-02-05T14:15:44;10.73;;;5.27;;
6101;SDS011;3081;50.584;7.032;2023-02-05T14:18:12;9.73;;;4.47;;
6101;SDS011;3081;50.584;7.032;2023-02-05T14:24:26;9.10;;;5.60;;
6101;SDS011;3081;50.584;7.032;2023-02-05T14:27:18;14.90;;;8.27;;
6101;SDS011;3081;50.584;7.032;2023-02-05T14:39:06;9.80;;;5.13;;
6101;SDS011;3081;50.584;7.032;2023-02-05T14:41:46;13.63;;;9.60;;
6101;SDS011;3081;50.584;7.032;2023-02-05T14:44:20;12.70;;;7.70;;
6101;SDS011;3081;50.584;7.032;2023-02-05T14:46:55;11.77;;;8.63;;
6101;SDS011;3081;50.584;7.032;2023-02-05T14:49:28;14.03;;;7.40;;
6101;SDS011;3081;50.584;7.032;2023-02-05T14:52:02;9.30;;;5.30;;
6101;SDS011;3081;50.584;7.032;2023-02-05T14:54:32;9.00;;;5.57;;
6101;SDS011;3081;50.584;7.032;2023-02-05T14:57:15;12.33;;;7.73;;
6101;SDS011;3081;50.584;7.032;2023-02-05T14:59:48;14.03;;;8.30;;
6101;SDS011;3081;50.584;7.032;2023-02-05T15:05:24;14.50;;;10.03;;
6101;SDS011;3081;50.584;7.032;2023-02-05T15:07:59;12.80;;;7.40;;
6101;SDS011;3081;50.584;7.032;2023-02-05T15:10:33;11.30;;;8.00;;
6101;SDS011;3081;50.584;7.032;2023-02-05T15:13:08;13.37;;;7.20;;
6101;SDS011;3081;50.584;7.032;2023-02-05T15:15:37;16.13;;;8.70;;
6101;SDS011;3081;50.584;7.032;2023-02-05T15:18:05;8.40;;;5.57;;
6101;SDS011;3081;50.584;7.032;2023-02-05T15:20:39;13.07;;;6.30;;
6101;SDS011;3081;50.584;7.032;2023-02-05T15:23:16;17.57;;;6.23;;
6101;SDS011;3081;50.584;7.032;2023-02-05T15:25:52;12.80;;;8.50;;
6101;SDS011;3081;50.584;7.032;2023-02-05T15:28:24;14.33;;;7.33;;
6101;SDS011;3081;50.584;7.032;2023-02-05T15:31:03;14.13;;;8.70;;
6101;SDS011;3081;50.584;7.032;2023-02-05T15:33:45;14.10;;;6.80;;
6101;SDS011;3081;50.584;7.032;2023-02-05T15:36:20;14.10;;;5.13;;
6101;SDS011;3081;50.584;7.032;2023-02-05T15:38:58;11.03;;;5.80;;
6101;SDS011;3081;50.584;7.032;2023-02-05T15:41:30;11.07;;;6.47;;
6101;SDS011;3081;50.584;7.032;2023-02-05T15:44:17;10.97;;;7.60;;
6101;SDS011;3081;50.584;7.032;2023-02-05T15:46:45;11.87;;;6.47;;
6101;SDS011;3081;50.584;7.032;2023-02-05T15:49:15;11.10;;;6.87;;
6101;SDS011;3081;50.584;7.032;2023-02-05T15:51:41;12.53;;;5.90;;
6101;SDS011;3081;50.584;7.032;2023-02-05T15:54:12;14.67;;;7.50;;
6101;SDS011;3081;50.584;7.032;2023-02-05T15:56:46;15.30;;;5.73;;
6101;SDS011;3081;50.584;7.032;2023-02-05T15:59:16;18.03;;;8.00;;
6101;SDS011;3081;50.584;7.032;2023-02-05T16:01:45;14.87;;;6.93;;
6101;SDS011;3081;50.584;7.032;2023-02-05T16:04:23;13.90;;;6.30;;
6101;SDS011;3081;50.584;7.032;2023-02-05T16:06:53;12.67;;;6.43;;